sensor_id;sensor_type;location;lat;lon;timestamp;temperature;humidity
10644;DHT22;5370;50.132;8.626;2023-08-08T00:00:51;14.70;80.60
10644;DHT22;5370;50.132;8.626;2023-08-08T00:03:16;14.70;81.00
10644;DHT22;5370;50.132;8.626;2023-08-08T00:05:42;14.70;81.40
10644;DHT22;5370;50.132;8.626;2023-08-08T00:08:07;14.70;81.60
10644;DHT22;5370;50.132;8.626;2023-08-08T00:10:33;14.70;81.70
10644;DHT22;5370;50.132;8.626;2023-08-08T00:12:59;14.70;81.90
10644;DHT22;5370;50.132;8.626;2023-08-08T00:15:24;14.70;82.10
10644;DHT22;5370;50.132;8.626;2023-08-08T00:17:50;14.70;82.40
10644;DHT22;5370;50.132;8.626;2023-08-08T00:20:15;14.70;82.70
10644;DHT22;5370;50.132;8.626;2023-08-08T00:22:41;14.70;83.00
10644;DHT22;5370;50.132;8.626;2023-08-08T00:25:07;14.70;83.20
10644;DHT22;5370;50.132;8.626;2023-08-08T00:27:32;14.70;83.40
10644;DHT22;5370;50.132;8.626;2023-08-08T00:29:58;14.70;83.60
10644;DHT22;5370;50.132;8.626;2023-08-08T00:32:23;14.70;83.80
10644;DHT22;5370;50.132;8.626;2023-08-08T00:34:49;14.70;84.00
10644;DHT22;5370;50.132;8.626;2023-08-08T00:37:14;14.70;84.20
10644;DHT22;5370;50.132;8.626;2023-08-08T00:39:40;14.70;84.20
10644;DHT22;5370;50.132;8.626;2023-08-08T00:42:13;14.70;84.40
10644;DHT22;5370;50.132;8.626;2023-08-08T00:44:39;14.70;84.50
10644;DHT22;5370;50.132;8.626;2023-08-08T00:47:08;14.80;84.80
10644;DHT22;5370;50.132;8.626;2023-08-08T00:49:34;14.80;85.00
10644;DHT22;5370;50.132;8.626;2023-08-08T00:51:59;14.80;85.00
10644;DHT22;5370;50.132;8.626;2023-08-08T00:54:25;14.80;85.10
10644;DHT22;5370;50.132;8.626;2023-08-08T00:56:51;14.80;85.20
10644;DHT22;5370;50.132;8.626;2023-08-08T00:59:18;14.80;85.40
10644;DHT22;5370;50.132;8.626;2023-08-08T01:01:44;14.80;85.50
10644;DHT22;5370;50.132;8.626;2023-08-08T01:04:10;14.80;85.60
10644;DHT22;5370;50.132;8.626;2023-08-08T01:06:58;14.80;85.70
10644;DHT22;5370;50.132;8.626;2023-08-08T01:09:46;14.80;85.90
10644;DHT22;5370;50.132;8.626;2023-08-08T01:12:14;14.70;85.90
10644;DHT22;5370;50.132;8.626;2023-08-08T01:14:43;14.70;85.90
10644;DHT22;5370;50.132;8.626;2023-08-08T01:17:10;14.60;86.00
10644;DHT22;5370;50.132;8.626;2023-08-08T01:19:37;14.60;86.10
10644;DHT22;5370;50.132;8.626;2023-08-08T01:22:06;14.50;86.20
10644;DHT22;5370;50.132;8.626;2023-08-08T01:24:33;14.50;86.50
10644;DHT22;5370;50.132;8.626;2023-08-08T01:27:02;14.50;87.10
10644;DHT22;5370;50.132;8.626;2023-08-08T01:29:28;14.50;87.80
10644;DHT22;5370;50.132;8.626;2023-08-08T01:31:54;14.50;88.00
10644;DHT22;5370;50.132;8.626;2023-08-08T01:34:20;14.50;88.10
10644;DHT22;5370;50.132;8.626;2023-08-08T01:36:55;14.50;88.40
10644;DHT22;5370;50.132;8.626;2023-08-08T01:39:26;14.50;88.60
10644;DHT22;5370;50.132;8.626;2023-08-08T01:41:54;14.50;88.60
10644;DHT22;5370;50.132;8.626;2023-08-08T01:44:20;14.50;88.80
10644;DHT22;5370;50.132;8.626;2023-08-08T01:46:46;14.40;88.90
10644;DHT22;5370;50.132;8.626;2023-08-08T01:49:12;14.40;89.00
10644;DHT22;5370;50.132;8.626;2023-08-08T01:51:37;14.40;89.10
10644;DHT22;5370;50.132;8.626;2023-08-08T01:54:03;14.30;89.00
10644;DHT22;5370;50.132;8.626;2023-08-08T01:56:29;14.30;89.20
10644;DHT22;5370;50.132;8.626;2023-08-08T01:58:54;14.20;89.40
10644;DHT22;5370;50.132;8.626;2023-08-08T02:01:20;14.20;89.60
10644;DHT22;5370;50.132;8.626;2023-08-08T02:03:45;14.10;89.80
10644;DHT22;5370;50.132;8.626;2023-08-08T02:06:11;14.10;90.10
10644;DHT22;5370;50.132;8.626;2023-08-08T02:08:36;14.00;90.30
10644;DHT22;5370;50.132;8.626;2023-08-08T02:11:02;14.00;90.40
10644;DHT22;5370;50.132;8.626;2023-08-08T02:13:27;14.00;90.50
10644;DHT22;5370;50.132;8.626;2023-08-08T02:15:53;13.90;90.50
10644;DHT22;5370;50.132;8.626;2023-08-08T02:18:18;13.90;90.60
10644;DHT22;5370;50.132;8.626;2023-08-08T02:20:44;13.80;90.70
10644;DHT22;5370;50.132;8.626;2023-08-08T02:23:09;13.70;90.80
10644;DHT22;5370;50.132;8.626;2023-08-08T02:25:35;13.70;91.00
10644;DHT22;5370;50.132;8.626;2023-08-08T02:28:00;13.70;91.20
10644;DHT22;5370;50.132;8.626;2023-08-08T02:30:26;13.60;91.40
10644;DHT22;5370;50.132;8.626;2023-08-08T02:32:51;13.60;91.50
10644;DHT22;5370;50.132;8.626;2023-08-08T02:35:17;13.50;91.60
10644;DHT22;5370;50.132;8.626;2023-08-08T02:37:43;13.50;91.80
10644;DHT22;5370;50.132;8.626;2023-08-08T02:40:08;13.50;92.00
10644;DHT22;5370;50.132;8.626;2023-08-08T02:42:35;13.40;92.20
10644;DHT22;5370;50.132;8.626;2023-08-08T02:45:00;13.40;92.40
10644;DHT22;5370;50.132;8.626;2023-08-08T02:47:26;13.40;92.60
10644;DHT22;5370;50.132;8.626;2023-08-08T02:49:51;13.40;92.90
10644;DHT22;5370;50.132;8.626;2023-08-08T02:52:17;13.30;93.10
10644;DHT22;5370;50.132;8.626;2023-08-08T02:54:42;13.30;93.40
10644;DHT22;5370;50.132;8.626;2023-08-08T02:57:08;13.30;93.50
10644;DHT22;5370;50.132;8.626;2023-08-08T02:59:36;13.30;93.50
10644;DHT22;5370;50.132;8.626;2023-08-08T03:02:02;13.20;93.60
10644;DHT22;5370;50.132;8.626;2023-08-08T03:04:29;13.20;93.80
10644;DHT22;5370;50.132;8.626;2023-08-08T03:06:54;13.20;94.00
10644;DHT22;5370;50.132;8.626;2023-08-08T03:09:20;13.20;94.10
10644;DHT22;5370;50.132;8.626;2023-08-08T03:11:45;13.20;94.20
10644;DHT22;5370;50.132;8.626;2023-08-08T03:14:11;13.10;94.20
10644;DHT22;5370;50.132;8.626;2023-08-08T03:16:36;13.10;94.30
10644;DHT22;5370;50.132;8.626;2023-08-08T03:19:02;13.10;94.50
10644;DHT22;5370;50.132;8.626;2023-08-08T03:21:28;13.10;94.70
10644;DHT22;5370;50.132;8.626;2023-08-08T03:23:53;13.00;94.80
10644;DHT22;5370;50.132;8.626;2023-08-08T03:26:19;13.00;94.90
10644;DHT22;5370;50.132;8.626;2023-08-08T03:28:45;13.00;95.00
10644;DHT22;5370;50.132;8.626;2023-08-08T03:31:10;13.00;95.10
10644;DHT22;5370;50.132;8.626;2023-08-08T03:33:36;12.90;95.10
10644;DHT22;5370;50.132;8.626;2023-08-08T03:36:01;12.90;95.30
10644;DHT22;5370;50.132;8.626;2023-08-08T03:38:27;12.90;95.40
10644;DHT22;5370;50.132;8.626;2023-08-08T03:40:52;12.90;95.50
10644;DHT22;5370;50.132;8.626;2023-08-08T03:43:18;12.90;95.70
10644;DHT22;5370;50.132;8.626;2023-08-08T03:45:44;13.00;95.90
10644;DHT22;5370;50.132;8.626;2023-08-08T03:48:10;12.90;95.90
10644;DHT22;5370;50.132;8.626;2023-08-08T03:50:35;13.00;96.10
10644;DHT22;5370;50.132;8.626;2023-08-08T03:53:01;12.90;96.10
10644;DHT22;5370;50.132;8.626;2023-08-08T03:55:27;12.90;96.20
10644;DHT22;5370;50.132;8.626;2023-08-08T03:57:52;12.90;96.40
10644;DHT22;5370;50.132;8.626;2023-08-08T04:00:18;12.90;96.50
10644;DHT22;5370;50.132;8.626;2023-08-08T04:02:43;12.90;96.50
10644;DHT22;5370;50.132;8.626;2023-08-08T04:05:09;12.90;96.60
10644;DHT22;5370;50.132;8.626;2023-08-08T04:07:34;12.90;96.70
10644;DHT22;5370;50.132;8.626;2023-08-08T04:10:00;12.90;96.70
10644;DHT22;5370;50.132;8.626;2023-08-08T04:12:26;12.90;96.90
10644;DHT22;5370;50.132;8.626;2023-08-08T04:14:51;12.90;97.00
10644;DHT22;5370;50.132;8.626;2023-08-08T04:17:17;12.90;97.00
10644;DHT22;5370;50.132;8.626;2023-08-08T04:19:42;12.90;96.90
10644;DHT22;5370;50.132;8.626;2023-08-08T04:22:08;12.90;97.00
10644;DHT22;5370;50.132;8.626;2023-08-08T04:24:34;12.90;97.10
10644;DHT22;5370;50.132;8.626;2023-08-08T04:26:59;13.00;97.20
10644;DHT22;5370;50.132;8.626;2023-08-08T04:29:25;13.00;97.30
10644;DHT22;5370;50.132;8.626;2023-08-08T04:31:50;13.00;97.30
10644;DHT22;5370;50.132;8.626;2023-08-08T04:34:16;13.10;97.30
10644;DHT22;5370;50.132;8.626;2023-08-08T04:36:42;13.10;97.20
10644;DHT22;5370;50.132;8.626;2023-08-08T04:39:08;13.20;97.20
10644;DHT22;5370;50.132;8.626;2023-08-08T04:41:33;13.20;97.10
10644;DHT22;5370;50.132;8.626;2023-08-08T04:43:59;13.30;97.20
10644;DHT22;5370;50.132;8.626;2023-08-08T04:46:24;13.30;97.20
10644;DHT22;5370;50.132;8.626;2023-08-08T04:48:50;13.40;97.10
10644;DHT22;5370;50.132;8.626;2023-08-08T04:51:15;13.40;97.00
10644;DHT22;5370;50.132;8.626;2023-08-08T04:53:41;13.50;96.90
10644;DHT22;5370;50.132;8.626;2023-08-08T04:56:06;13.50;96.70
10644;DHT22;5370;50.132;8.626;2023-08-08T04:58:32;13.60;96.70
10644;DHT22;5370;50.132;8.626;2023-08-08T05:00:57;13.60;96.60
10644;DHT22;5370;50.132;8.626;2023-08-08T05:03:24;13.60;96.60
10644;DHT22;5370;50.132;8.626;2023-08-08T05:05:49;13.60;96.40
10644;DHT22;5370;50.132;8.626;2023-08-08T05:08:15;13.70;96.30
10644;DHT22;5370;50.132;8.626;2023-08-08T05:10:40;13.70;96.10
10644;DHT22;5370;50.132;8.626;2023-08-08T05:13:06;13.80;96.00
10644;DHT22;5370;50.132;8.626;2023-08-08T05:15:31;13.80;95.90
10644;DHT22;5370;50.132;8.626;2023-08-08T05:17:57;13.90;95.70
10644;DHT22;5370;50.132;8.626;2023-08-08T05:20:23;13.90;95.60
10644;DHT22;5370;50.132;8.626;2023-08-08T05:22:48;13.90;95.50
10644;DHT22;5370;50.132;8.626;2023-08-08T05:25:14;14.00;95.40
10644;DHT22;5370;50.132;8.626;2023-08-08T05:27:39;14.10;95.40
10644;DHT22;5370;50.132;8.626;2023-08-08T05:30:06;14.10;95.30
10644;DHT22;5370;50.132;8.626;2023-08-08T05:32:31;14.20;95.20
10644;DHT22;5370;50.132;8.626;2023-08-08T05:34:57;14.40;95.10
10644;DHT22;5370;50.132;8.626;2023-08-08T05:37:23;14.50;94.90
10644;DHT22;5370;50.132;8.626;2023-08-08T05:39:49;14.70;95.10
10644;DHT22;5370;50.132;8.626;2023-08-08T05:42:15;14.80;94.70
10644;DHT22;5370;50.132;8.626;2023-08-08T05:44:40;15.00;94.60
10644;DHT22;5370;50.132;8.626;2023-08-08T05:47:09;15.40;94.40
10644;DHT22;5370;50.132;8.626;2023-08-08T05:49:35;15.70;93.90
10644;DHT22;5370;50.132;8.626;2023-08-08T05:52:01;15.90;93.30
10644;DHT22;5370;50.132;8.626;2023-08-08T05:54:27;16.20;92.80
10644;DHT22;5370;50.132;8.626;2023-08-08T05:56:53;16.50;92.30
10644;DHT22;5370;50.132;8.626;2023-08-08T05:59:19;16.90;91.80
10644;DHT22;5370;50.132;8.626;2023-08-08T06:01:44;17.20;91.00
10644;DHT22;5370;50.132;8.626;2023-08-08T06:04:10;17.50;90.20
10644;DHT22;5370;50.132;8.626;2023-08-08T06:06:36;17.70;88.20
10644;DHT22;5370;50.132;8.626;2023-08-08T06:09:01;17.80;86.70
10644;DHT22;5370;50.132;8.626;2023-08-08T06:11:28;17.90;85.20
10644;DHT22;5370;50.132;8.626;2023-08-08T06:13:53;18.00;84.00
10644;DHT22;5370;50.132;8.626;2023-08-08T06:16:20;18.20;83.40
10644;DHT22;5370;50.132;8.626;2023-08-08T06:18:45;18.60;82.60
10644;DHT22;5370;50.132;8.626;2023-08-08T06:21:11;19.20;81.30
10644;DHT22;5370;50.132;8.626;2023-08-08T06:23:37;20.20;79.80
10644;DHT22;5370;50.132;8.626;2023-08-08T06:26:02;21.40;76.30
10644;DHT22;5370;50.132;8.626;2023-08-08T06:28:28;22.80;71.90
10644;DHT22;5370;50.132;8.626;2023-08-08T06:30:56;24.20;66.20
10644;DHT22;5370;50.132;8.626;2023-08-08T06:33:21;25.60;60.60
10644;DHT22;5370;50.132;8.626;2023-08-08T06:35:47;27.00;56.60
10644;DHT22;5370;50.132;8.626;2023-08-08T06:38:12;28.40;52.80
10644;DHT22;5370;50.132;8.626;2023-08-08T06:40:38;29.50;49.00
10644;DHT22;5370;50.132;8.626;2023-08-08T06:43:04;30.40;46.40
10644;DHT22;5370;50.132;8.626;2023-08-08T06:45:29;31.10;44.40
10644;DHT22;5370;50.132;8.626;2023-08-08T06:47:55;31.30;42.00
10644;DHT22;5370;50.132;8.626;2023-08-08T06:50:20;31.10;41.10
10644;DHT22;5370;50.132;8.626;2023-08-08T06:52:46;30.90;40.30
10644;DHT22;5370;50.132;8.626;2023-08-08T06:55:11;30.70;40.20
10644;DHT22;5370;50.132;8.626;2023-08-08T06:57:37;30.50;40.00
10644;DHT22;5370;50.132;8.626;2023-08-08T07:00:03;30.40;39.80
10644;DHT22;5370;50.132;8.626;2023-08-08T07:02:33;30.70;39.80
10644;DHT22;5370;50.132;8.626;2023-08-08T07:04:59;31.50;38.50
10644;DHT22;5370;50.132;8.626;2023-08-08T07:07:25;32.50;36.80
10644;DHT22;5370;50.132;8.626;2023-08-08T07:09:50;33.50;35.60
10644;DHT22;5370;50.132;8.626;2023-08-08T07:12:16;34.50;33.60
10644;DHT22;5370;50.132;8.626;2023-08-08T07:14:41;35.40;32.10
10644;DHT22;5370;50.132;8.626;2023-08-08T07:17:07;36.10;30.90
10644;DHT22;5370;50.132;8.626;2023-08-08T07:19:32;36.90;29.90
10644;DHT22;5370;50.132;8.626;2023-08-08T07:21:58;37.80;28.70
10644;DHT22;5370;50.132;8.626;2023-08-08T07:24:24;38.40;27.60
10644;DHT22;5370;50.132;8.626;2023-08-08T07:26:57;38.90;26.90
10644;DHT22;5370;50.132;8.626;2023-08-08T07:29:23;39.20;26.30
10644;DHT22;5370;50.132;8.626;2023-08-08T07:31:49;39.50;25.80
10644;DHT22;5370;50.132;8.626;2023-08-08T07:34:14;39.90;25.60
10644;DHT22;5370;50.132;8.626;2023-08-08T07:36:40;40.40;25.10
10644;DHT22;5370;50.132;8.626;2023-08-08T07:39:05;40.80;24.50
10644;DHT22;5370;50.132;8.626;2023-08-08T07:41:31;41.30;23.90
10644;DHT22;5370;50.132;8.626;2023-08-08T07:43:56;41.70;23.30
10644;DHT22;5370;50.132;8.626;2023-08-08T07:46:22;42.00;22.90
10644;DHT22;5370;50.132;8.626;2023-08-08T07:48:48;42.30;22.20
10644;DHT22;5370;50.132;8.626;2023-08-08T07:51:14;42.20;21.90
10644;DHT22;5370;50.132;8.626;2023-08-08T07:53:39;41.90;22.10
10644;DHT22;5370;50.132;8.626;2023-08-08T07:56:05;41.10;22.40
10644;DHT22;5370;50.132;8.626;2023-08-08T07:58:32;40.00;22.70
10644;DHT22;5370;50.132;8.626;2023-08-08T08:00:58;38.90;23.30
10644;DHT22;5370;50.132;8.626;2023-08-08T08:03:26;37.80;24.20
10644;DHT22;5370;50.132;8.626;2023-08-08T08:05:52;37.30;24.80
10644;DHT22;5370;50.132;8.626;2023-08-08T08:08:18;37.30;25.00
10644;DHT22;5370;50.132;8.626;2023-08-08T08:10:44;37.80;24.80
10644;DHT22;5370;50.132;8.626;2023-08-08T08:13:11;38.40;24.20
10644;DHT22;5370;50.132;8.626;2023-08-08T08:15:37;39.00;23.30
10644;DHT22;5370;50.132;8.626;2023-08-08T08:18:03;39.20;22.70
10644;DHT22;5370;50.132;8.626;2023-08-08T08:20:28;39.20;22.60
10644;DHT22;5370;50.132;8.626;2023-08-08T08:22:54;39.50;22.50
10644;DHT22;5370;50.132;8.626;2023-08-08T08:25:19;39.90;22.30
10644;DHT22;5370;50.132;8.626;2023-08-08T08:27:45;40.00;21.80
10644;DHT22;5370;50.132;8.626;2023-08-08T08:30:11;39.60;21.90
10644;DHT22;5370;50.132;8.626;2023-08-08T08:32:39;38.90;22.10
10644;DHT22;5370;50.132;8.626;2023-08-08T08:35:05;38.00;22.80
10644;DHT22;5370;50.132;8.626;2023-08-08T08:37:31;37.00;23.40
10644;DHT22;5370;50.132;8.626;2023-08-08T08:39:57;36.00;24.10
10644;DHT22;5370;50.132;8.626;2023-08-08T08:42:23;35.10;24.80
10644;DHT22;5370;50.132;8.626;2023-08-08T08:44:50;34.20;25.60
10644;DHT22;5370;50.132;8.626;2023-08-08T08:47:17;33.40;26.50
10644;DHT22;5370;50.132;8.626;2023-08-08T08:49:44;32.70;27.10
10644;DHT22;5370;50.132;8.626;2023-08-08T08:52:11;32.00;27.70
10644;DHT22;5370;50.132;8.626;2023-08-08T08:54:37;31.30;28.40
10644;DHT22;5370;50.132;8.626;2023-08-08T08:57:03;30.70;29.00
10644;DHT22;5370;50.132;8.626;2023-08-08T08:59:29;30.10;29.60
10644;DHT22;5370;50.132;8.626;2023-08-08T09:01:56;29.40;30.00
10644;DHT22;5370;50.132;8.626;2023-08-08T09:04:22;28.90;30.80
10644;DHT22;5370;50.132;8.626;2023-08-08T09:06:49;28.20;32.40
10644;DHT22;5370;50.132;8.626;2023-08-08T09:09:16;27.80;32.70
10644;DHT22;5370;50.132;8.626;2023-08-08T09:11:46;27.40;33.40
10644;DHT22;5370;50.132;8.626;2023-08-08T09:14:23;27.10;34.00
10644;DHT22;5370;50.132;8.626;2023-08-08T09:16:50;26.70;34.50
10644;DHT22;5370;50.132;8.626;2023-08-08T09:19:18;26.40;35.10
10644;DHT22;5370;50.132;8.626;2023-08-08T09:21:44;26.00;35.60
10644;DHT22;5370;50.132;8.626;2023-08-08T09:24:10;25.80;36.30
10644;DHT22;5370;50.132;8.626;2023-08-08T09:26:36;25.70;36.90
10644;DHT22;5370;50.132;8.626;2023-08-08T09:29:02;25.50;37.10
10644;DHT22;5370;50.132;8.626;2023-08-08T09:31:28;25.30;37.20
10644;DHT22;5370;50.132;8.626;2023-08-08T09:33:58;25.30;37.50
10644;DHT22;5370;50.132;8.626;2023-08-08T09:36:23;25.20;38.00
10644;DHT22;5370;50.132;8.626;2023-08-08T09:38:49;25.10;38.40
10644;DHT22;5370;50.132;8.626;2023-08-08T09:41:15;25.10;38.50
10644;DHT22;5370;50.132;8.626;2023-08-08T09:43:44;25.10;38.50
10644;DHT22;5370;50.132;8.626;2023-08-08T09:46:10;25.10;38.80
10644;DHT22;5370;50.132;8.626;2023-08-08T09:48:38;25.10;38.90
10644;DHT22;5370;50.132;8.626;2023-08-08T09:51:04;25.20;39.20
10644;DHT22;5370;50.132;8.626;2023-08-08T09:53:30;25.20;39.40
10644;DHT22;5370;50.132;8.626;2023-08-08T09:55:57;25.10;39.40
10644;DHT22;5370;50.132;8.626;2023-08-08T09:58:23;25.20;39.30
10644;DHT22;5370;50.132;8.626;2023-08-08T10:00:49;25.10;39.00
10644;DHT22;5370;50.132;8.626;2023-08-08T10:03:16;24.90;38.90
10644;DHT22;5370;50.132;8.626;2023-08-08T10:05:43;24.80;39.20
10644;DHT22;5370;50.132;8.626;2023-08-08T10:08:08;24.80;39.90
10644;DHT22;5370;50.132;8.626;2023-08-08T10:10:35;24.80;40.10
10644;DHT22;5370;50.132;8.626;2023-08-08T10:13:01;24.80;39.90
10644;DHT22;5370;50.132;8.626;2023-08-08T10:15:27;24.80;40.00
10644;DHT22;5370;50.132;8.626;2023-08-08T10:17:57;24.80;39.90
10644;DHT22;5370;50.132;8.626;2023-08-08T10:20:25;24.60;39.60
10644;DHT22;5370;50.132;8.626;2023-08-08T10:22:52;24.50;39.90
10644;DHT22;5370;50.132;8.626;2023-08-08T10:25:23;24.50;40.50
10644;DHT22;5370;50.132;8.626;2023-08-08T10:27:48;24.50;40.90
10644;DHT22;5370;50.132;8.626;2023-08-08T10:30:14;24.60;40.70
10644;DHT22;5370;50.132;8.626;2023-08-08T10:32:42;24.70;40.50
10644;DHT22;5370;50.132;8.626;2023-08-08T10:35:09;24.80;39.70
10644;DHT22;5370;50.132;8.626;2023-08-08T10:37:35;24.90;39.60
10644;DHT22;5370;50.132;8.626;2023-08-08T10:40:03;24.90;39.20
10644;DHT22;5370;50.132;8.626;2023-08-08T10:42:40;25.00;39.30
10644;DHT22;5370;50.132;8.626;2023-08-08T10:45:10;25.10;39.00
10644;DHT22;5370;50.132;8.626;2023-08-08T10:47:37;25.30;38.70
10644;DHT22;5370;50.132;8.626;2023-08-08T10:50:05;25.30;38.50
10644;DHT22;5370;50.132;8.626;2023-08-08T10:55:56;25.30;38.70
10644;DHT22;5370;50.132;8.626;2023-08-08T10:58:14;25.30;38.60
10644;DHT22;5370;50.132;8.626;2023-08-08T11:00:45;25.40;38.70
10644;DHT22;5370;50.132;8.626;2023-08-08T11:03:10;25.50;38.50
10644;DHT22;5370;50.132;8.626;2023-08-08T11:05:37;25.50;38.30
10644;DHT22;5370;50.132;8.626;2023-08-08T11:08:04;25.50;38.20
10644;DHT22;5370;50.132;8.626;2023-08-08T11:10:35;25.60;38.10
10644;DHT22;5370;50.132;8.626;2023-08-08T11:13:03;25.50;37.90
10644;DHT22;5370;50.132;8.626;2023-08-08T11:15:29;25.50;38.00
10644;DHT22;5370;50.132;8.626;2023-08-08T11:17:55;25.50;37.90
10644;DHT22;5370;50.132;8.626;2023-08-08T11:20:25;25.50;37.70
10644;DHT22;5370;50.132;8.626;2023-08-08T11:22:53;25.60;37.60
10644;DHT22;5370;50.132;8.626;2023-08-08T11:25:19;25.50;37.00
10644;DHT22;5370;50.132;8.626;2023-08-08T11:27:52;25.30;37.10
10644;DHT22;5370;50.132;8.626;2023-08-08T11:30:18;25.30;37.30
10644;DHT22;5370;50.132;8.626;2023-08-08T11:32:45;25.20;37.30
10644;DHT22;5370;50.132;8.626;2023-08-08T11:35:11;25.10;37.10
10644;DHT22;5370;50.132;8.626;2023-08-08T11:37:37;25.00;37.10
10644;DHT22;5370;50.132;8.626;2023-08-08T11:40:03;24.90;37.40
10644;DHT22;5370;50.132;8.626;2023-08-08T11:42:31;24.90;37.80
10644;DHT22;5370;50.132;8.626;2023-08-08T11:44:57;25.00;37.60
10644;DHT22;5370;50.132;8.626;2023-08-08T11:47:26;25.10;37.20
10644;DHT22;5370;50.132;8.626;2023-08-08T11:49:52;25.10;37.30
10644;DHT22;5370;50.132;8.626;2023-08-08T11:52:19;25.10;37.30
10644;DHT22;5370;50.132;8.626;2023-08-08T11:54:49;25.10;37.00
10644;DHT22;5370;50.132;8.626;2023-08-08T11:57:16;25.10;36.80
10644;DHT22;5370;50.132;8.626;2023-08-08T11:59:41;25.00;37.00
10644;DHT22;5370;50.132;8.626;2023-08-08T12:02:07;24.90;37.20
10644;DHT22;5370;50.132;8.626;2023-08-08T12:04:32;24.80;37.10
10644;DHT22;5370;50.132;8.626;2023-08-08T12:07:02;24.80;37.30
10644;DHT22;5370;50.132;8.626;2023-08-08T12:09:32;24.70;37.20
10644;DHT22;5370;50.132;8.626;2023-08-08T12:12:01;24.70;37.40
10644;DHT22;5370;50.132;8.626;2023-08-08T12:14:27;24.70;37.70
10644;DHT22;5370;50.132;8.626;2023-08-08T12:16:54;24.70;38.00
10644;DHT22;5370;50.132;8.626;2023-08-08T12:19:24;24.80;38.30
10644;DHT22;5370;50.132;8.626;2023-08-08T12:21:51;24.80;38.00
10644;DHT22;5370;50.132;8.626;2023-08-08T12:24:18;24.80;38.00
10644;DHT22;5370;50.132;8.626;2023-08-08T12:26:43;24.80;38.20
10644;DHT22;5370;50.132;8.626;2023-08-08T12:29:09;24.90;38.20
10644;DHT22;5370;50.132;8.626;2023-08-08T12:31:34;24.90;38.50
10644;DHT22;5370;50.132;8.626;2023-08-08T12:34:00;25.00;38.60
10644;DHT22;5370;50.132;8.626;2023-08-08T12:36:26;25.30;38.30
10644;DHT22;5370;50.132;8.626;2023-08-08T12:38:51;25.40;37.50
10644;DHT22;5370;50.132;8.626;2023-08-08T12:41:17;25.60;37.40
10644;DHT22;5370;50.132;8.626;2023-08-08T12:43:43;25.70;37.10
10644;DHT22;5370;50.132;8.626;2023-08-08T12:46:08;25.80;36.60
10644;DHT22;5370;50.132;8.626;2023-08-08T12:48:34;25.70;36.50
10644;DHT22;5370;50.132;8.626;2023-08-08T12:51:00;25.70;36.50
10644;DHT22;5370;50.132;8.626;2023-08-08T12:53:25;25.60;36.60
10644;DHT22;5370;50.132;8.626;2023-08-08T12:55:51;25.60;37.00
10644;DHT22;5370;50.132;8.626;2023-08-08T12:58:17;25.60;37.10
10644;DHT22;5370;50.132;8.626;2023-08-08T13:00:43;25.50;37.10
10644;DHT22;5370;50.132;8.626;2023-08-08T13:03:08;25.40;37.00
10644;DHT22;5370;50.132;8.626;2023-08-08T13:05:35;25.30;37.20
10644;DHT22;5370;50.132;8.626;2023-08-08T13:08:01;25.30;37.60
10644;DHT22;5370;50.132;8.626;2023-08-08T13:10:26;25.20;37.60
10644;DHT22;5370;50.132;8.626;2023-08-08T13:12:52;25.20;37.60
10644;DHT22;5370;50.132;8.626;2023-08-08T13:15:17;25.10;37.40
10644;DHT22;5370;50.132;8.626;2023-08-08T13:17:43;25.00;37.50
10644;DHT22;5370;50.132;8.626;2023-08-08T13:20:09;25.00;37.60
10644;DHT22;5370;50.132;8.626;2023-08-08T13:22:35;24.80;37.30
10644;DHT22;5370;50.132;8.626;2023-08-08T13:25:00;24.60;37.30
10644;DHT22;5370;50.132;8.626;2023-08-08T13:27:26;24.50;37.70
10644;DHT22;5370;50.132;8.626;2023-08-08T13:29:51;24.20;37.90
10644;DHT22;5370;50.132;8.626;2023-08-08T13:32:17;24.00;38.20
10644;DHT22;5370;50.132;8.626;2023-08-08T13:34:43;23.80;38.20
10644;DHT22;5370;50.132;8.626;2023-08-08T13:37:09;23.70;38.40
10644;DHT22;5370;50.132;8.626;2023-08-08T13:39:34;23.60;38.50
10644;DHT22;5370;50.132;8.626;2023-08-08T13:42:00;23.60;38.40
10644;DHT22;5370;50.132;8.626;2023-08-08T13:44:26;23.60;38.30
10644;DHT22;5370;50.132;8.626;2023-08-08T13:46:51;23.70;38.50
10644;DHT22;5370;50.132;8.626;2023-08-08T13:49:17;23.80;38.50
10644;DHT22;5370;50.132;8.626;2023-08-08T13:51:42;23.90;38.50
10644;DHT22;5370;50.132;8.626;2023-08-08T13:54:09;23.90;38.40
10644;DHT22;5370;50.132;8.626;2023-08-08T13:56:34;24.00;38.50
10644;DHT22;5370;50.132;8.626;2023-08-08T13:59:00;24.10;38.60
10644;DHT22;5370;50.132;8.626;2023-08-08T14:01:25;24.10;38.60
10644;DHT22;5370;50.132;8.626;2023-08-08T14:03:51;24.10;38.60
10644;DHT22;5370;50.132;8.626;2023-08-08T14:06:16;24.20;38.80
10644;DHT22;5370;50.132;8.626;2023-08-08T14:08:42;24.20;39.00
10644;DHT22;5370;50.132;8.626;2023-08-08T14:11:07;24.30;38.80
10644;DHT22;5370;50.132;8.626;2023-08-08T14:13:33;24.30;38.60
10644;DHT22;5370;50.132;8.626;2023-08-08T14:16:00;24.20;38.60
10644;DHT22;5370;50.132;8.626;2023-08-08T14:18:26;24.10;38.70
10644;DHT22;5370;50.132;8.626;2023-08-08T14:20:51;24.00;38.70
10644;DHT22;5370;50.132;8.626;2023-08-08T14:23:17;23.80;38.80
10644;DHT22;5370;50.132;8.626;2023-08-08T14:25:42;23.70;39.00
10644;DHT22;5370;50.132;8.626;2023-08-08T14:28:08;23.50;39.30
10644;DHT22;5370;50.132;8.626;2023-08-08T14:30:33;23.40;39.60
10644;DHT22;5370;50.132;8.626;2023-08-08T14:32:59;23.20;39.80
10644;DHT22;5370;50.132;8.626;2023-08-08T14:35:25;23.20;40.10
10644;DHT22;5370;50.132;8.626;2023-08-08T14:37:50;23.20;40.30
10644;DHT22;5370;50.132;8.626;2023-08-08T14:40:16;23.30;40.30
10644;DHT22;5370;50.132;8.626;2023-08-08T14:42:41;23.30;40.30
10644;DHT22;5370;50.132;8.626;2023-08-08T14:45:07;23.30;40.10
10644;DHT22;5370;50.132;8.626;2023-08-08T14:47:33;23.30;40.30
10644;DHT22;5370;50.132;8.626;2023-08-08T14:49:58;23.30;40.30
10644;DHT22;5370;50.132;8.626;2023-08-08T14:52:23;23.20;40.30
10644;DHT22;5370;50.132;8.626;2023-08-08T14:54:50;23.00;40.50
10644;DHT22;5370;50.132;8.626;2023-08-08T14:57:16;22.90;40.70
10644;DHT22;5370;50.132;8.626;2023-08-08T14:59:42;22.80;41.00
10644;DHT22;5370;50.132;8.626;2023-08-08T15:02:08;22.70;41.20
10644;DHT22;5370;50.132;8.626;2023-08-08T15:04:33;22.50;41.30
10644;DHT22;5370;50.132;8.626;2023-08-08T15:06:59;22.40;41.60
10644;DHT22;5370;50.132;8.626;2023-08-08T15:09:24;22.30;41.90
10644;DHT22;5370;50.132;8.626;2023-08-08T15:11:50;22.20;42.20
10644;DHT22;5370;50.132;8.626;2023-08-08T15:14:16;22.20;42.40
10644;DHT22;5370;50.132;8.626;2023-08-08T15:16:41;22.20;42.50
10644;DHT22;5370;50.132;8.626;2023-08-08T15:19:07;22.20;42.80
10644;DHT22;5370;50.132;8.626;2023-08-08T15:21:33;22.10;43.00
10644;DHT22;5370;50.132;8.626;2023-08-08T15:23:58;22.00;43.30
10644;DHT22;5370;50.132;8.626;2023-08-08T15:26:24;22.00;43.30
10644;DHT22;5370;50.132;8.626;2023-08-08T15:28:50;22.00;43.60
10644;DHT22;5370;50.132;8.626;2023-08-08T15:31:15;22.10;43.80
10644;DHT22;5370;50.132;8.626;2023-08-08T15:33:41;22.10;43.90
10644;DHT22;5370;50.132;8.626;2023-08-08T15:36:08;22.20;43.90
10644;DHT22;5370;50.132;8.626;2023-08-08T15:38:33;22.20;43.90
10644;DHT22;5370;50.132;8.626;2023-08-08T15:40:59;22.20;44.10